CheckWX is a tool to help pilots better visualize weather data.  It is not intended as a substitute for an official pre-flight weather briefing.

15:22:00 UTC

KTIK TAF
Tinker AFB Airport
Oklahoma City, Oklahoma, USA
TAF KTIK 191000Z 1910/2016 VRB06KT 9999 SKC QNH2990INS BECMG 1917/1918 15010G15KT 9999 SKC QNH2987INS BECMG 2000/2001 16009KT 9999 FEW100 WS020/19040KT QNH2985INS BECMG 2011/2012 17010G15KT 9999 BKN015 OVC150 510104 QNH2983INS TX21/1921Z TN08/1912Z

Nov-19@
10:00 UTC

Nov-19 @ 10:00 UTC

Nov-19@
17:00 UTC

Nov-19 @ 17:00 UTC

TAF KTIK 191000Z 1910/2016 VRB06KT 9999 SKC QNH2990INS
Wind
  • Variable at 6 KTS
Cloud Levels
  • Clear skies

Nov-19@
17:00 UTC

Nov-19 @ 17:00 UTC

Nov-20@
00:00 UTC

Nov-20 @ 00:00 UTC

BECMG 1917/1918 15010G15KT 9999 SKC QNH2987INS

Becoming

Becoming Conditions expected by Tue, Nov 19, 2019 @ 18:00 UTC

Wind
  • 150° at 10 KTS
  • {Gusting to 15 KTS
Cloud Levels
  • Clear skies

Nov-20@
00:00 UTC

Nov-20 @ 00:00 UTC

Nov-20@
11:00 UTC

Nov-20 @ 11:00 UTC

BECMG 2000/2001 16009KT 9999 FEW100 WS020/19040KT QNH2985INS

Becoming

Becoming Conditions expected by Wed, Nov 20, 2019 @ 01:00 UTC

Wind
  • 160° at 9 KTS
Cloud Levels
  • Few at 10,000' AGL

Nov-20@
11:00 UTC

Nov-20 @ 11:00 UTC

Nov-20@
16:00 UTC

Nov-20 @ 16:00 UTC

BECMG 2011/2012 17010G15KT 9999 BKN015 OVC150 510104 QNH2983INS TX21/1921Z TN08/1912Z

Becoming

Becoming Conditions expected by Wed, Nov 20, 2019 @ 12:00 UTC

Wind
  • 170° at 10 KTS
  • {Gusting to 15 KTS
Cloud Levels
  • Broken at 1,500' AGL
  • Overcast at 15,000' AGL
Turbulence
< Light turbulence expected at 1,000' AGL extending to 5,000' AGL